Time;durP1;ratioP1;P1;durP2;ratioP2;P2;SDS_P1;SDS_P2;PMS_P1;PMS_P2;Temp;Humidity;BMP_temperature;BMP_pressure;BME280_temperature;BME280_humidity;BME280_pressure;Samples;Min_cycle;Max_cycle;Signal;HPM_P1;HPM_P2
2023/12/09 00:02:21;;;;;;;13.68;2.25;;;9.10;99.90;;;;;;5072540;28;20040;-64
2023/12/09 00:04:48;;;;;;;11.43;1.65;;;9.10;99.90;;;;;;5069990;28;20088;-63
2023/12/09 00:07:15;;;;;;;10.85;1.67;;;9.10;99.90;;;;;;5073801;28;20044;-64
2023/12/09 00:09:42;;;;;;;16.85;1.88;;;9.10;99.90;;;;;;5072382;28;20147;-64
2023/12/09 00:12:09;;;;;;;6.65;1.45;;;9.10;99.90;;;;;;5072397;28;20097;-65
2023/12/09 00:14:35;;;;;;;13.48;1.90;;;9.10;99.90;;;;;;5070537;28;20049;-64
2023/12/09 00:17:02;;;;;;;14.98;2.05;;;9.10;99.90;;;;;;5071025;28;20048;-64
2023/12/09 00:19:29;;;;;;;13.25;2.00;;;9.10;99.90;;;;;;5072291;28;20124;-64
2023/12/09 00:21:56;;;;;;;18.52;2.90;;;9.10;99.90;;;;;;5072746;28;20049;-66
2023/12/09 00:24:23;;;;;;;14.13;1.88;;;9.10;99.90;;;;;;5072214;28;20064;-64
2023/12/09 00:26:50;;;;;;;10.05;2.47;;;9.10;99.90;;;;;;5084332;28;20462;-64
2023/12/09 00:29:17;;;;;;;10.45;1.90;;;9.10;99.90;;;;;;5059635;28;20055;-64
2023/12/09 00:31:44;;;;;;;10.95;1.63;;;9.10;99.90;;;;;;5069365;28;20049;-64
2023/12/09 00:34:10;;;;;;;14.00;1.92;;;9.20;99.90;;;;;;5069808;28;20048;-64
2023/12/09 00:36:37;;;;;;;10.35;2.63;;;9.20;99.90;;;;;;5064816;28;20102;-64
2023/12/09 00:39:05;;;;;;;13.68;1.48;;;9.10;99.90;;;;;;5070284;28;20486;-65
2023/12/09 00:41:32;;;;;;;8.70;1.90;;;9.10;99.90;;;;;;5069949;28;20051;-65
2023/12/09 00:43:58;;;;;;;7.28;1.63;;;9.10;99.90;;;;;;5051150;28;20078;-64
2023/12/09 00:46:25;;;;;;;12.20;1.65;;;9.10;99.90;;;;;;5069194;28;20048;-64
2023/12/09 00:48:52;;;;;;;13.38;2.28;;;9.00;99.90;;;;;;5069584;28;20048;-64
2023/12/09 00:51:19;;;;;;;5.90;1.88;;;9.00;99.90;;;;;;5069529;28;20059;-64
2023/12/09 00:53:46;;;;;;;15.38;3.05;;;9.00;99.90;;;;;;5070260;28;20058;-64
2023/12/09 00:56:13;;;;;;;9.02;1.50;;;9.00;99.90;;;;;;5068580;28;20072;-66
2023/12/09 00:58:40;;;;;;;6.45;1.63;;;8.90;99.90;;;;;;5069129;28;20048;-64
2023/12/09 01:01:06;;;;;;;10.63;1.58;;;8.80;99.90;;;;;;5068276;28;20106;-67
2023/12/09 01:03:33;;;;;;;15.90;2.10;;;8.80;99.90;;;;;;5068591;28;20041;-64
2023/12/09 01:06:00;;;;;;;14.40;3.60;;;8.80;99.90;;;;;;5068159;28;20052;-65
2023/12/09 01:08:29;;;;;;;13.07;1.80;;;8.80;99.90;;;;;;5068420;28;20048;-64
2023/12/09 01:10:55;;;;;;;12.35;3.10;;;8.70;99.90;;;;;;5068566;28;20040;-64
2023/12/09 01:13:22;;;;;;;10.10;1.38;;;8.70;99.90;;;;;;5068101;28;20106;-65
2023/12/09 01:15:49;;;;;;;6.75;1.10;;;8.70;99.90;;;;;;5068058;28;20087;-66
2023/12/09 01:18:16;;;;;;;9.52;1.77;;;8.70;99.90;;;;;;5068383;28;20048;-64
2023/12/09 01:20:42;;;;;;;7.13;1.50;;;8.70;99.90;;;;;;5067969;28;20102;-64
2023/12/09 01:23:09;;;;;;;9.30;2.05;;;8.70;99.90;;;;;;5067991;28;20133;-64
2023/12/09 01:25:36;;;;;;;12.77;1.52;;;8.60;99.90;;;;;;5062114;28;20087;-65
2023/12/09 01:28:03;;;;;;;16.95;3.08;;;8.60;99.90;;;;;;5068314;28;20042;-64
2023/12/09 01:30:30;;;;;;;14.45;1.52;;;8.60;99.90;;;;;;5057076;28;20044;-65
2023/12/09 01:32:57;;;;;;;10.85;1.90;;;8.60;99.90;;;;;;5064807;28;20056;-64
2023/12/09 01:35:24;;;;;;;14.23;2.28;;;8.60;99.90;;;;;;4694082;28;10000090;-65
2023/12/09 01:37:50;;;;;;;13.68;2.15;;;8.50;99.90;;;;;;5067246;28;20541;-64
2023/12/09 01:40:17;;;;;;;10.00;1.88;;;8.60;99.90;;;;;;5068109;28;20060;-65
2023/12/09 01:42:44;;;;;;;8.35;1.95;;;8.60;99.90;;;;;;5067319;28;20049;-64
2023/12/09 01:45:11;;;;;;;13.18;1.73;;;8.60;99.90;;;;;;5065763;28;20426;-64
2023/12/09 01:47:38;;;;;;;14.90;3.47;;;8.60;99.90;;;;;;5065884;28;20109;-64
2023/12/09 01:50:06;;;;;;;12.98;1.80;;;8.60;99.90;;;;;;5064948;28;20068;-64
2023/12/09 01:52:33;;;;;;;13.88;2.28;;;8.60;99.90;;;;;;5049796;28;20041;-65
2023/12/09 01:55:00;;;;;;;7.07;1.55;;;8.50;99.90;;;;;;5048293;28;20098;-64
2023/12/09 01:57:27;;;;;;;14.98;2.55;;;8.50;99.90;;;;;;5063782;28;20078;-64
2023/12/09 01:59:54;;;;;;;13.23;1.85;;;8.60;99.90;;;;;;5041189;28;20059;-64
2023/12/09 02:02:21;;;;;;;12.10;1.90;;;8.60;99.90;;;;;;5065367;28;20376;-65
2023/12/09 02:04:48;;;;;;;13.35;3.45;;;8.60;99.90;;;;;;5067223;28;20059;-64
2023/12/09 02:07:15;;;;;;;7.88;2.35;;;8.60;99.90;;;;;;5082898;28;20047;-64
2023/12/09 02:09:42;;;;;;;12.40;1.95;;;8.60;99.90;;;;;;5067691;28;20117;-64
2023/12/09 02:12:15;;;;;;;10.77;2.13;;;8.60;99.90;;;;;;5049545;28;20071;-64
2023/12/09 02:14:45;;;;;;;13.15;1.73;;;8.60;99.90;;;;;;5065511;28;20082;-64
2023/12/09 02:17:19;;;;;;;20.00;2.08;;;8.60;99.90;;;;;;5074334;28;20190;-65
2023/12/09 02:19:46;;;;;;;26.98;3.60;;;8.60;99.90;;;;;;5029497;28;20053;-64
2023/12/09 02:22:13;;;;;;;10.23;2.13;;;8.60;99.90;;;;;;5067079;28;20052;-65
2023/12/09 02:24:40;;;;;;;14.43;2.42;;;8.60;99.90;;;;;;5066410;28;20048;-63
2023/12/09 02:27:15;;;;;;;11.27;1.92;;;8.70;99.90;;;;;;5067076;28;20055;-65
2023/12/09 02:29:53;;;;;;;12.35;2.83;;;8.70;99.90;;;;;;5049253;28;20054;-64
2023/12/09 02:32:23;;;;;;;18.10;2.75;;;8.70;99.90;;;;;;5050066;28;20118;-64
2023/12/09 02:34:51;;;;;;;28.30;3.47;;;8.80;99.90;;;;;;5049378;28;20087;-64
2023/12/09 02:37:20;;;;;;;22.98;3.38;;;8.80;99.90;;;;;;5057761;28;20092;-64
2023/12/09 02:39:47;;;;;;;23.10;3.28;;;8.90;99.90;;;;;;5082116;28;20041;-64
2023/12/09 02:42:14;;;;;;;23.70;4.25;;;8.90;99.90;;;;;;5082078;28;20067;-64
2023/12/09 02:44:42;;;;;;;13.57;2.28;;;8.90;99.90;;;;;;5049221;28;20052;-64
2023/12/09 02:47:13;;;;;;;16.30;2.47;;;9.00;99.90;;;;;;5040526;28;20048;-65
2023/12/09 02:49:44;;;;;;;15.73;2.60;;;8.90;99.90;;;;;;5047031;28;20041;-64
2023/12/09 02:52:11;;;;;;;10.48;2.50;;;8.90;99.90;;;;;;5064570;28;20040;-64
2023/12/09 02:54:38;;;;;;;19.67;2.67;;;8.90;99.90;;;;;;5065414;28;20044;-64
2023/12/09 02:57:05;;;;;;;19.23;4.15;;;8.90;99.90;;;;;;5065342;28;20282;-64
2023/12/09 02:59:32;;;;;;;25.52;3.10;;;9.00;99.90;;;;;;5067022;28;20455;-64
2023/12/09 03:01:59;;;;;;;29.90;3.92;;;9.00;99.90;;;;;;5066703;28;20491;-64
2023/12/09 03:04:26;;;;;;;24.50;3.22;;;9.00;99.90;;;;;;5066743;28;20090;-64
2023/12/09 03:06:53;;;;;;;16.83;2.65;;;9.00;99.90;;;;;;5066749;28;20568;-64
2023/12/09 03:09:20;;;;;;;11.30;2.22;;;9.00;99.90;;;;;;5067576;28;20143;-65
2023/12/09 03:11:47;;;;;;;28.05;3.70;;;9.10;99.90;;;;;;5063397;28;20048;-64
2023/12/09 03:14:14;;;;;;;22.55;2.70;;;9.10;99.90;;;;;;5066899;28;20135;-65
2023/12/09 03:16:41;;;;;;;18.75;3.60;;;9.10;99.90;;;;;;5065987;28;20056;-64
2023/12/09 03:19:07;;;;;;;25.48;3.08;;;9.20;99.90;;;;;;5067159;28;20044;-65
2023/12/09 03:21:34;;;;;;;21.40;3.10;;;9.20;99.90;;;;;;5066698;28;20347;-64
2023/12/09 03:24:01;;;;;;;12.23;2.42;;;9.20;99.90;;;;;;5064129;28;20139;-64
2023/12/09 03:26:28;;;;;;;26.67;5.00;;;9.30;99.90;;;;;;5067878;28;20045;-66
2023/12/09 03:28:55;;;;;;;25.50;3.47;;;9.30;99.90;;;;;;5085043;28;20045;-64
2023/12/09 03:31:22;;;;;;;15.13;2.80;;;9.40;99.90;;;;;;5068568;28;20044;-64
2023/12/09 03:33:48;;;;;;;12.63;2.80;;;9.40;99.90;;;;;;5069439;28;20044;-64
2023/12/09 03:36:15;;;;;;;21.15;2.63;;;9.40;99.90;;;;;;5069491;28;20048;-65
2023/12/09 03:38:42;;;;;;;17.63;2.92;;;9.50;99.90;;;;;;5066821;28;20127;-64
2023/12/09 03:41:09;;;;;;;27.55;3.65;;;9.50;99.90;;;;;;5070079;28;20053;-68
2023/12/09 03:43:36;;;;;;;21.83;2.75;;;9.50;99.90;;;;;;5051710;28;20040;-65
2023/12/09 03:46:04;;;;;;;19.60;6.78;;;9.50;99.90;;;;;;5070022;28;20098;-63
2023/12/09 03:48:31;;;;;;;15.30;2.35;;;9.50;99.90;;;;;;5070070;28;20120;-63
2023/12/09 03:50:58;;;;;;;17.10;2.95;;;9.50;99.90;;;;;;5070103;28;20483;-63
2023/12/09 03:53:26;;;;;;;20.90;3.20;;;9.50;99.90;;;;;;5085386;28;20045;-64
2023/12/09 03:55:53;;;;;;;11.07;2.38;;;9.50;99.90;;;;;;5069745;28;20048;-64
2023/12/09 03:58:22;;;;;;;14.27;2.72;;;9.50;99.90;;;;;;5067315;28;20048;-63
2023/12/09 04:00:49;;;;;;;19.77;4.20;;;9.50;99.90;;;;;;5069782;28;20055;-63
2023/12/09 04:03:17;;;;;;;26.50;2.90;;;9.50;99.90;;;;;;5069628;28;20043;-64
2023/12/09 04:05:44;;;;;;;10.68;2.47;;;9.50;99.90;;;;;;5062466;28;20126;-64
2023/12/09 04:08:11;;;;;;;16.48;2.55;;;9.50;99.90;;;;;;5063576;28;20040;-65
2023/12/09 04:10:38;;;;;;;20.52;3.88;;;9.40;99.90;;;;;;5058643;28;20095;-63
2023/12/09 04:13:05;;;;;;;17.40;2.17;;;9.40;99.90;;;;;;5069103;28;20102;-63
2023/12/09 04:15:31;;;;;;;10.20;2.00;;;9.40;99.90;;;;;;5069583;28;20487;-63
2023/12/09 04:17:59;;;;;;;18.88;2.03;;;9.40;99.90;;;;;;5069019;28;20260;-63
2023/12/09 04:20:26;;;;;;;17.38;2.05;;;9.30;99.90;;;;;;5069904;28;20047;-63
2023/12/09 04:22:53;;;;;;;15.05;2.65;;;9.30;99.90;;;;;;5069116;28;20055;-63
2023/12/09 04:25:21;;;;;;;22.05;3.95;;;9.30;99.90;;;;;;5069324;28;20399;-63
2023/12/09 04:27:48;;;;;;;17.30;2.55;;;9.20;99.90;;;;;;5068950;28;20114;-63
2023/12/09 04:30:15;;;;;;;17.63;2.63;;;9.20;99.90;;;;;;5069459;28;20118;-63
2023/12/09 04:32:42;;;;;;;15.02;2.40;;;9.20;99.90;;;;;;5069489;28;20121;-63
2023/12/09 04:35:09;;;;;;;8.25;2.13;;;9.10;99.90;;;;;;5069012;28;20049;-63
2023/12/09 04:37:36;;;;;;;15.02;2.45;;;9.10;99.90;;;;;;5069275;28;20086;-62
2023/12/09 04:40:10;;;;;;;16.10;2.25;;;9.10;99.90;;;;;;5068975;28;20051;-62
2023/12/09 04:42:37;;;;;;;;;;;9.10;99.90;;;;;;5069273;28;20049;-62
2023/12/09 04:45:05;;;;;;;15.10;2.35;;;9.10;99.90;;;;;;5068629;28;19920;-63
2023/12/09 04:47:33;;;;;;;19.08;2.30;;;9.10;99.90;;;;;;5068323;28;20036;-64
2023/12/09 04:50:00;;;;;;;14.23;3.30;;;9.00;99.90;;;;;;5068520;28;20392;-64
2023/12/09 04:52:27;;;;;;;13.57;2.10;;;9.10;99.90;;;;;;5068806;28;20487;-64
2023/12/09 04:54:54;;;;;;;19.83;2.55;;;9.10;99.90;;;;;;5068418;28;20114;-63
2023/12/09 04:57:21;;;;;;;13.85;2.03;;;9.10;99.90;;;;;;5068395;28;20056;-64
2023/12/09 04:59:49;;;;;;;15.52;2.05;;;9.10;99.90;;;;;;5050478;28;20044;-63
2023/12/09 05:02:16;;;;;;;17.52;2.33;;;9.10;99.90;;;;;;5068682;28;20419;-63
2023/12/09 05:04:42;;;;;;;10.15;2.83;;;9.10;99.90;;;;;;5067783;28;20491;-64
2023/12/09 05:07:09;;;;;;;16.50;2.83;;;9.10;99.90;;;;;;5068459;28;20439;-64
2023/12/09 05:09:36;;;;;;;18.92;2.80;;;9.10;99.90;;;;;;5067909;28;20458;-63
2023/12/09 05:12:03;;;;;;;15.25;2.08;;;9.10;99.90;;;;;;5050897;28;20056;-63
2023/12/09 05:14:30;;;;;;;19.52;2.75;;;9.10;99.90;;;;;;5067813;28;20040;-63
2023/12/09 05:16:57;;;;;;;18.48;2.38;;;9.10;99.90;;;;;;5068420;28;20499;-63
2023/12/09 05:19:24;;;;;;;16.45;2.38;;;9.10;99.90;;;;;;5068093;28;20728;-64
2023/12/09 05:21:51;;;;;;;12.57;2.10;;;9.10;99.90;;;;;;5067912;28;20088;-62
2023/12/09 05:24:18;;;;;;;11.75;2.40;;;9.10;99.90;;;;;;5067790;28;20151;-63
2023/12/09 05:26:45;;;;;;;16.95;2.28;;;9.10;99.90;;;;;;5068306;28;20056;-62
2023/12/09 05:29:12;;;;;;;11.23;2.55;;;9.10;99.90;;;;;;5068215;28;20048;-62
2023/12/09 05:31:40;;;;;;;15.65;2.60;;;9.10;99.90;;;;;;5067978;28;20052;-64
2023/12/09 05:34:07;;;;;;;12.43;2.17;;;9.10;99.90;;;;;;5067731;28;20037;-62
2023/12/09 05:36:36;;;;;;;11.98;3.97;;;9.10;99.90;;;;;;5066058;28;20041;-62
2023/12/09 05:39:03;;;;;;;15.70;2.45;;;9.10;99.90;;;;;;5046244;28;20040;-62
2023/12/09 05:41:30;;;;;;;12.00;2.35;;;9.10;99.90;;;;;;5067410;28;20071;-62
2023/12/09 05:43:57;;;;;;;10.48;3.13;;;9.10;99.90;;;;;;5065726;28;20040;-62
2023/12/09 05:46:24;;;;;;;14.98;2.53;;;9.10;99.90;;;;;;5067506;28;20048;-62
2023/12/09 05:48:50;;;;;;;9.55;2.38;;;9.00;99.90;;;;;;5060157;28;20057;-63
2023/12/09 05:51:18;;;;;;;7.70;1.77;;;9.10;99.90;;;;;;5067511;28;20064;-62
2023/12/09 05:53:45;;;;;;;12.15;2.15;;;9.10;99.90;;;;;;5066050;28;20041;-62
2023/12/09 05:56:11;;;;;;;18.63;2.33;;;9.10;99.90;;;;;;5066004;28;20110;-63
2023/12/09 05:58:41;;;;;;;6.72;1.55;;;9.00;99.90;;;;;;5066734;28;20307;-63
2023/12/09 06:01:08;;;;;;;15.93;2.72;;;9.10;99.90;;;;;;5067051;28;20056;-63
2023/12/09 06:03:35;;;;;;;14.20;2.30;;;9.10;99.90;;;;;;5067556;28;20044;-63
2023/12/09 06:06:03;;;;;;;12.23;1.58;;;9.10;99.90;;;;;;5067685;28;20529;-63
2023/12/09 06:08:31;;;;;;;10.13;1.92;;;9.10;99.90;;;;;;5067778;28;20077;-63
2023/12/09 06:10:58;;;;;;;12.95;2.97;;;9.10;99.90;;;;;;5067757;28;20086;-64
2023/12/09 06:13:25;;;;;;;8.57;1.60;;;9.10;99.90;;;;;;5067193;28;20048;-64
2023/12/09 06:15:52;;;;;;;6.30;1.33;;;9.10;99.90;;;;;;5067147;28;20416;-64
2023/12/09 06:18:18;;;;;;;12.00;1.98;;;9.10;99.90;;;;;;5067516;28;20048;-64
2023/12/09 06:20:45;;;;;;;6.78;1.85;;;9.10;99.90;;;;;;5067111;28;20048;-63
2023/12/09 06:23:12;;;;;;;19.95;2.45;;;9.00;99.90;;;;;;5067382;28;20056;-64
2023/12/09 06:25:39;;;;;;;10.60;1.45;;;9.10;99.90;;;;;;5067755;28;20048;-64
2023/12/09 06:28:06;;;;;;;8.77;2.13;;;9.10;99.90;;;;;;5067656;28;20048;-64
2023/12/09 06:30:33;;;;;;;10.07;1.60;;;9.10;99.90;;;;;;5066883;28;20048;-64
2023/12/09 06:33:00;;;;;;;10.02;1.48;;;9.10;99.90;;;;;;5049238;28;20842;-64
2023/12/09 06:35:27;;;;;;;5.10;0.95;;;9.10;99.90;;;;;;5067137;28;20044;-67
2023/12/09 06:37:54;;;;;;;10.07;2.97;;;9.10;99.90;;;;;;5066812;28;20052;-64
2023/12/09 06:40:23;;;;;;;12.40;3.20;;;9.10;99.90;;;;;;5066758;28;20494;-64
2023/12/09 06:42:50;;;;;;;8.00;1.20;;;9.10;99.90;;;;;;5066481;28;20513;-64
2023/12/09 06:45:17;;;;;;;4.55;0.80;;;9.10;99.90;;;;;;5064361;28;20066;-66
2023/12/09 06:47:44;;;;;;;9.00;1.75;;;9.10;99.90;;;;;;5067056;28;20037;-64
2023/12/09 06:50:11;;;;;;;7.70;1.83;;;9.10;99.90;;;;;;5066907;28;20084;-64
2023/12/09 06:52:39;;;;;;;2.47;0.70;;;9.10;99.90;;;;;;5066914;28;20047;-64
2023/12/09 06:55:07;;;;;;;7.32;1.35;;;9.10;99.90;;;;;;5082955;28;20044;-64
2023/12/09 06:57:34;;;;;;;4.72;0.93;;;9.10;99.90;;;;;;5082599;28;20048;-63
2023/12/09 07:00:07;;;;;;;6.03;1.05;;;9.10;99.90;;;;;;5066582;28;20051;-64
2023/12/09 07:02:34;;;;;;;4.35;1.58;;;9.20;99.90;;;;;;5068224;28;20052;-64
2023/12/09 07:05:18;;;;;;;;;;;9.20;99.90;;;;;;5069046;28;20064;-64
2023/12/09 07:07:45;;;;;;;4.80;1.67;;;9.20;99.90;;;;;;5068790;28;19928;-64
2023/12/09 07:10:13;;;;;;;3.80;1.40;;;9.20;99.90;;;;;;5069223;28;20052;-64
2023/12/09 07:12:40;;;;;;;6.40;1.20;;;9.20;99.90;;;;;;5070834;28;20503;-63
2023/12/09 07:15:08;;;;;;;3.38;1.08;;;9.20;99.90;;;;;;5070401;28;20111;-64
2023/12/09 07:17:35;;;;;;;8.50;1.02;;;9.20;99.90;;;;;;5070620;28;20106;-63
2023/12/09 07:20:05;;;;;;;7.97;1.02;;;9.20;99.90;;;;;;5070290;28;20041;-64
2023/12/09 07:22:32;;;;;;;4.03;0.93;;;9.20;99.90;;;;;;5070348;28;20040;-64
2023/12/09 07:24:59;;;;;;;5.78;0.80;;;9.20;99.90;;;;;;5085742;28;20040;-64
2023/12/09 07:27:26;;;;;;;7.72;1.63;;;9.20;99.90;;;;;;5070496;28;20048;-65
2023/12/09 07:29:53;;;;;;;6.88;0.93;;;9.20;99.90;;;;;;5070005;28;20483;-65
2023/12/09 07:32:20;;;;;;;5.53;0.95;;;9.20;99.90;;;;;;5070128;28;20044;-65
2023/12/09 07:34:47;;;;;;;3.22;0.82;;;9.20;99.90;;;;;;5069725;28;20127;-65
2023/12/09 07:37:14;;;;;;;8.75;0.98;;;9.20;99.90;;;;;;5067785;28;20045;-64
2023/12/09 07:39:42;;;;;;;4.22;0.85;;;9.20;99.90;;;;;;5070041;28;20056;-67
2023/12/09 07:42:09;;;;;;;5.13;1.02;;;9.20;99.90;;;;;;5069695;28;20044;-65
2023/12/09 07:44:36;;;;;;;2.90;0.75;;;9.10;99.90;;;;;;5069648;28;20052;-65
2023/12/09 07:47:03;;;;;;;4.93;0.80;;;9.20;99.90;;;;;;5069768;28;20044;-65
2023/12/09 07:49:30;;;;;;;4.00;0.90;;;9.20;99.90;;;;;;5070168;28;20049;-65
2023/12/09 07:51:57;;;;;;;8.75;1.05;;;9.20;99.90;;;;;;5051992;28;20117;-65
2023/12/09 07:54:24;;;;;;;4.43;0.77;;;9.30;99.90;;;;;;5069932;28;20049;-65
2023/12/09 07:56:51;;;;;;;6.90;0.95;;;9.20;99.90;;;;;;5069420;28;20063;-65
2023/12/09 07:59:18;;;;;;;2.83;0.63;;;9.20;99.90;;;;;;5069937;28;20040;-65
2023/12/09 08:01:45;;;;;;;4.03;1.00;;;9.20;99.90;;;;;;5069005;28;20053;-67
2023/12/09 08:04:11;;;;;;;2.38;0.50;;;9.30;99.90;;;;;;5069534;28;20072;-66
2023/12/09 08:06:39;;;;;;;4.85;0.52;;;9.20;99.90;;;;;;5070091;28;20048;-66
2023/12/09 08:09:06;;;;;;;4.80;0.57;;;9.30;99.90;;;;;;5066723;28;20045;-66
2023/12/09 08:11:33;;;;;;;3.35;0.68;;;9.30;99.90;;;;;;5068121;28;20131;-67
2023/12/09 08:14:00;;;;;;;4.75;0.47;;;9.30;99.90;;;;;;4716416;28;10000403;-67
2023/12/09 08:16:27;;;;;;;1.80;0.45;;;9.30;99.90;;;;;;5060690;28;20248;-64
2023/12/09 08:18:54;;;;;;;1.65;0.80;;;9.30;99.90;;;;;;5069283;28;20118;-65
2023/12/09 08:21:21;;;;;;;3.40;0.63;;;9.30;99.90;;;;;;5046884;28;20048;-66
2023/12/09 08:23:48;;;;;;;3.00;0.85;;;9.30;99.90;;;;;;5058111;28;20518;-65
2023/12/09 08:26:17;;;;;;;2.10;0.70;;;9.30;99.90;;;;;;5060725;28;20134;-66
2023/12/09 08:28:45;;;;;;;2.35;0.68;;;9.30;99.90;;;;;;5042488;28;20088;-65
2023/12/09 08:31:12;;;;;;;1.20;0.50;;;9.30;99.90;;;;;;5044617;28;20059;-66
2023/12/09 08:33:40;;;;;;;2.70;0.50;;;9.40;99.90;;;;;;5060657;28;20355;-66
2023/12/09 08:36:07;;;;;;;2.38;0.57;;;9.30;99.90;;;;;;5061497;28;20467;-65
2023/12/09 08:38:34;;;;;;;1.48;0.60;;;9.40;99.90;;;;;;5064793;28;20469;-67
2023/12/09 08:41:01;;;;;;;4.40;0.90;;;9.40;99.90;;;;;;5066087;28;20129;-66
2023/12/09 08:43:28;;;;;;;0.63;0.40;;;9.40;99.90;;;;;;5065274;28;20059;-66
2023/12/09 08:45:55;;;;;;;2.70;0.70;;;9.40;99.90;;;;;;5051760;28;20053;-66
2023/12/09 08:48:23;;;;;;;0.40;0.40;;;9.40;99.90;;;;;;5059984;28;20052;-66
2023/12/09 08:50:50;;;;;;;1.13;0.75;;;9.40;99.90;;;;;;5053955;28;20052;-65
2023/12/09 08:53:17;;;;;;;2.13;0.50;;;9.40;99.90;;;;;;5060367;28;20251;-66
2023/12/09 08:55:44;;;;;;;4.80;1.00;;;9.40;99.90;;;;;;5057565;28;20056;-64
2023/12/09 08:58:11;;;;;;;1.67;0.70;;;9.40;99.90;;;;;;5074031;28;20132;-64
2023/12/09 09:00:38;;;;;;;4.03;0.60;;;9.50;99.90;;;;;;5060558;28;20044;-64
2023/12/09 09:03:05;;;;;;;1.25;0.55;;;9.50;99.90;;;;;;5059638;28;20056;-64
2023/12/09 09:05:32;;;;;;;1.15;0.40;;;9.50;99.90;;;;;;5055367;28;20053;-63
2023/12/09 09:07:59;;;;;;;1.30;0.52;;;9.50;99.90;;;;;;5062331;28;20152;-65
2023/12/09 09:10:25;;;;;;;2.58;0.70;;;9.50;99.90;;;;;;5062961;28;20661;-64
2023/12/09 09:12:52;;;;;;;1.55;0.30;;;9.40;99.90;;;;;;5063259;28;20049;-63
2023/12/09 09:15:20;;;;;;;2.85;0.65;;;9.50;99.90;;;;;;5058857;28;20456;-63
2023/12/09 09:17:47;;;;;;;1.30;0.73;;;9.60;99.90;;;;;;5056797;28;20078;-63
2023/12/09 09:20:14;;;;;;;0.85;0.32;;;9.60;99.90;;;;;;5055751;28;20044;-63
2023/12/09 09:22:41;;;;;;;0.75;0.30;;;9.60;99.90;;;;;;5046376;28;20060;-64
2023/12/09 09:25:13;;;;;;;1.45;0.50;;;9.60;99.90;;;;;;5058325;28;20533;-64
2023/12/09 09:27:40;;;;;;;1.90;0.52;;;9.60;99.90;;;;;;5050406;28;20064;-64
2023/12/09 09:30:07;;;;;;;3.72;0.47;;;9.60;99.90;;;;;;5057440;28;20053;-64
2023/12/09 09:32:34;;;;;;;1.55;0.20;;;9.60;99.90;;;;;;5054402;28;20064;-64
2023/12/09 09:35:02;;;;;;;4.03;0.45;;;9.60;99.90;;;;;;5054102;28;20084;-64
2023/12/09 09:37:29;;;;;;;2.00;0.40;;;9.60;99.90;;;;;;5050644;28;20056;-65
2023/12/09 09:39:56;;;;;;;1.85;0.40;;;9.60;99.90;;;;;;5062739;28;20044;-64
2023/12/09 09:42:32;;;;;;;2.08;0.40;;;9.60;99.90;;;;;;5056011;28;20053;-64
2023/12/09 09:45:14;;;;;;;0.60;0.50;;;9.70;99.90;;;;;;5057238;28;20131;-64
2023/12/09 09:47:42;;;;;;;3.90;0.20;;;9.70;99.90;;;;;;5061458;28;20551;-63
2023/12/09 09:50:10;;;;;;;2.25;0.40;;;9.70;99.90;;;;;;5060586;28;20103;-63
2023/12/09 09:52:41;;;;;;;2.58;0.70;;;9.70;99.90;;;;;;5060001;28;20064;-63
2023/12/09 09:55:08;;;;;;;0.55;0.30;;;9.70;99.90;;;;;;5057275;28;20072;-64
2023/12/09 09:57:35;;;;;;;1.48;0.20;;;9.70;99.90;;;;;;5040619;28;20056;-64
2023/12/09 10:00:12;;;;;;;0.20;0.20;;;9.70;99.90;;;;;;5042799;28;20048;-64
2023/12/09 10:02:47;;;;;;;1.67;0.40;;;9.70;99.90;;;;;;5045770;28;20090;-63
2023/12/09 10:05:20;;;;;;;0.65;0.20;;;9.80;99.90;;;;;;5062743;28;20084;-63
2023/12/09 10:07:47;;;;;;;0.60;0.40;;;9.80;99.90;;;;;;5055067;28;20567;-64
2023/12/09 10:10:14;;;;;;;1.65;0.38;;;9.80;99.90;;;;;;5061115;28;20491;-63
2023/12/09 10:12:42;;;;;;;3.42;1.40;;;9.90;99.90;;;;;;5077733;28;20048;-64
2023/12/09 10:15:10;;;;;;;22.08;6.07;;;9.90;99.90;;;;;;5062863;28;20428;-64
2023/12/09 10:17:37;;;;;;;14.38;5.90;;;9.90;99.90;;;;;;5060340;28;20048;-63
2023/12/09 10:20:06;;;;;;;9.18;5.68;;;10.00;99.90;;;;;;5077720;28;20114;-63
2023/12/09 10:22:32;;;;;;;10.55;4.60;;;10.00;99.90;;;;;;5061228;28;20079;-63
2023/12/09 10:24:59;;;;;;;6.93;3.55;;;10.00;99.90;;;;;;5038983;28;20044;-64
2023/12/09 10:27:26;;;;;;;2.33;1.67;;;10.10;99.90;;;;;;5062871;28;20048;-65
2023/12/09 10:29:54;;;;;;;4.35;1.63;;;10.10;99.90;;;;;;5058351;28;20131;-63
2023/12/09 10:32:21;;;;;;;1.40;0.98;;;10.20;99.90;;;;;;5074468;28;20122;-63
2023/12/09 10:34:48;;;;;;;1.10;0.60;;;10.20;99.90;;;;;;5062533;28;20482;-63
2023/12/09 10:37:16;;;;;;;3.00;0.80;;;10.20;99.90;;;;;;5023223;28;20543;-65
2023/12/09 10:39:44;;;;;;;1.10;0.70;;;10.30;99.90;;;;;;5064305;28;20564;-64
2023/12/09 10:42:11;;;;;;;6.70;1.38;;;10.40;99.90;;;;;;5062723;28;20530;-64
2023/12/09 10:44:39;;;;;;;4.60;0.60;;;10.40;99.90;;;;;;5037850;28;20049;-64
2023/12/09 10:47:07;;;;;;;0.20;0.20;;;10.40;99.90;;;;;;5076022;28;20555;-63
2023/12/09 10:49:34;;;;;;;1.42;0.13;;;10.50;99.90;;;;;;5058504;28;20052;-63
2023/12/09 10:52:01;;;;;;;0.40;0.30;;;10.60;99.90;;;;;;5056603;28;20052;-63
2023/12/09 10:54:28;;;;;;;9.90;0.85;;;10.70;99.90;;;;;;5062209;28;20053;-64
2023/12/09 10:56:55;;;;;;;0.20;0.20;;;10.80;99.90;;;;;;5066464;28;20519;-63
2023/12/09 10:59:22;;;;;;;1.80;0.32;;;10.90;99.90;;;;;;5065648;28;20056;-64
2023/12/09 11:01:48;;;;;;;0.30;0.30;;;11.00;99.90;;;;;;5064939;28;20104;-64
2023/12/09 11:04:15;;;;;;;7.82;0.98;;;11.10;99.90;;;;;;5055722;28;20057;-63
2023/12/09 11:06:44;;;;;;;0.50;0.40;;;11.20;99.90;;;;;;5061574;28;20048;-63
2023/12/09 11:09:13;;;;;;;2.05;0.40;;;11.30;99.90;;;;;;5062408;28;20127;-64
2023/12/09 11:11:43;;;;;;;0.60;0.35;;;11.40;99.90;;;;;;5046848;28;20578;-64
2023/12/09 11:14:10;;;;;;;1.20;0.50;;;11.50;99.90;;;;;;5080164;28;20094;-65
2023/12/09 11:16:42;;;;;;;3.08;0.40;;;11.60;99.90;;;;;;5065601;28;20101;-64
2023/12/09 11:19:14;;;;;;;1.55;0.55;;;11.60;99.90;;;;;;5059057;28;20519;-64
2023/12/09 11:21:45;;;;;;;3.75;0.50;;;11.60;99.90;;;;;;5075923;28;20059;-64
2023/12/09 11:24:17;;;;;;;0.77;0.43;;;11.60;99.90;;;;;;5059631;28;20393;-64
2023/12/09 11:26:47;;;;;;;1.05;0.50;;;11.70;99.90;;;;;;5055491;28;20286;-64
2023/12/09 11:29:17;;;;;;;0.90;0.35;;;11.70;99.90;;;;;;5045907;28;20048;-64
2023/12/09 11:31:48;;;;;;;4.25;0.70;;;11.80;99.90;;;;;;5053071;28;20496;-63
2023/12/09 11:34:17;;;;;;;2.80;0.85;;;11.80;99.90;;;;;;5048383;28;20134;-64
2023/12/09 11:36:45;;;;;;;1.80;0.57;;;11.90;99.90;;;;;;5039066;28;20049;-64
2023/12/09 11:39:19;;;;;;;0.50;0.30;;;11.90;99.90;;;;;;5061953;28;20662;-64
2023/12/09 11:41:47;;;;;;;1.23;0.60;;;11.90;99.90;;;;;;5073655;28;20059;-64
2023/12/09 11:44:14;;;;;;;1.40;0.65;;;12.00;99.90;;;;;;5061800;28;20114;-64
2023/12/09 11:46:41;;;;;;;2.45;1.00;;;12.10;99.90;;;;;;5044762;28;20053;-64
2023/12/09 11:49:08;;;;;;;0.65;0.43;;;12.10;99.90;;;;;;5075361;28;20513;-65
2023/12/09 11:51:37;;;;;;;0.55;0.40;;;12.20;99.90;;;;;;5062570;28;20530;-65
2023/12/09 11:54:07;;;;;;;3.17;1.05;;;12.20;99.90;;;;;;5064530;28;20143;-64
2023/12/09 11:56:34;;;;;;;1.40;0.40;;;12.30;99.90;;;;;;5061035;28;20143;-64
2023/12/09 11:59:01;;;;;;;1.00;0.38;;;12.30;99.90;;;;;;5065846;28;20640;-65
2023/12/09 12:01:30;;;;;;;2.53;0.50;;;12.40;99.90;;;;;;5064515;28;20445;-65
2023/12/09 12:03:57;;;;;;;1.10;0.50;;;12.40;99.90;;;;;;5062999;28;20553;-64
2023/12/09 12:06:24;;;;;;;2.53;0.40;;;12.50;99.90;;;;;;5064757;28;20755;-63
2023/12/09 12:08:52;;;;;;;3.25;0.65;;;12.60;99.90;;;;;;5046561;28;20063;-64
2023/12/09 12:11:21;;;;;;;1.13;0.38;;;12.60;99.90;;;;;;5048510;28;20133;-64
2023/12/09 12:13:48;;;;;;;2.15;0.35;;;12.70;99.90;;;;;;5055715;28;20415;-63
2023/12/09 12:16:15;;;;;;;0.80;0.52;;;12.70;99.90;;;;;;5067224;28;20045;-63
2023/12/09 12:18:41;;;;;;;0.20;0.20;;;12.70;99.90;;;;;;5082041;28;20088;-64
2023/12/09 12:21:09;;;;;;;2.90;0.60;;;12.80;99.90;;;;;;5057189;28;20590;-64
2023/12/09 12:23:36;;;;;;;0.73;0.40;;;12.80;99.90;;;;;;5069693;28;20066;-63
2023/12/09 12:26:03;;;;;;;7.10;3.72;;;12.90;99.90;;;;;;5066063;28;20555;-63
2023/12/09 12:28:30;;;;;;;2.35;0.57;;;13.00;99.90;;;;;;5066971;28;20110;-64
2023/12/09 12:31:00;;;;;;;1.23;0.60;;;13.00;99.90;;;;;;5073225;28;20074;-64
2023/12/09 12:33:30;;;;;;;1.58;0.70;;;13.10;99.90;;;;;;5076128;28;20492;-64
2023/12/09 12:35:58;;;;;;;0.68;0.30;;;13.10;99.90;;;;;;5066555;28;20052;-64
2023/12/09 12:38:26;;;;;;;0.93;0.40;;;13.20;99.90;;;;;;5042149;28;20040;-63
2023/12/09 12:40:53;;;;;;;2.97;0.63;;;13.30;99.90;;;;;;5067613;28;20044;-63
2023/12/09 12:43:20;;;;;;;2.25;0.60;;;13.30;99.90;;;;;;5066483;28;20568;-63
2023/12/09 12:45:49;;;;;;;1.90;0.55;;;13.30;99.90;;;;;;5052098;28;20511;-64
2023/12/09 12:48:17;;;;;;;1.52;0.60;;;13.40;99.90;;;;;;5064885;28;20076;-64
2023/12/09 12:50:50;;;;;;;0.68;0.30;;;13.40;99.90;;;;;;5047922;28;20049;-64
2023/12/09 12:53:20;;;;;;;0.57;0.38;;;13.40;99.90;;;;;;5066073;28;20044;-65